sensor_id;sensor_type;location;lat;lon;timestamp;P1;durP1;ratioP1;P2;durP2;ratioP2
19262;SDS011;9765;52.354;20.884;2023-04-29T04:03:33;22.20;;;9.00;;
19262;SDS011;9765;52.354;20.884;2023-04-29T04:06:00;18.37;;;8.33;;
19262;SDS011;9765;52.354;20.884;2023-04-29T04:08:27;16.93;;;8.63;;
19262;SDS011;9765;52.354;20.884;2023-04-29T04:10:57;19.27;;;8.90;;
19262;SDS011;9765;52.354;20.884;2023-04-29T04:13:27;17.97;;;8.73;;
19262;SDS011;9765;52.354;20.884;2023-04-29T04:15:53;19.47;;;8.87;;
19262;SDS011;9765;52.354;20.884;2023-04-29T04:18:20;19.77;;;8.90;;
19262;SDS011;9765;52.354;20.884;2023-04-29T04:20:48;17.17;;;8.57;;
19262;SDS011;9765;52.354;20.884;2023-04-29T04:23:15;24.33;;;8.70;;
19262;SDS011;9765;52.354;20.884;2023-04-29T04:25:45;14.97;;;8.53;;
19262;SDS011;9765;52.354;20.884;2023-04-29T04:28:12;15.77;;;8.00;;
19262;SDS011;9765;52.354;20.884;2023-04-29T04:30:39;19.60;;;8.37;;
19262;SDS011;9765;52.354;20.884;2023-04-29T04:33:07;19.27;;;8.10;;
19262;SDS011;9765;52.354;20.884;2023-04-29T04:35:34;17.83;;;7.87;;
19262;SDS011;9765;52.354;20.884;2023-04-29T04:38:02;16.07;;;8.77;;
19262;SDS011;9765;52.354;20.884;2023-04-29T04:40:29;20.87;;;8.10;;
19262;SDS011;9765;52.354;20.884;2023-04-29T04:42:56;22.00;;;7.80;;
19262;SDS011;9765;52.354;20.884;2023-04-29T04:45:24;20.73;;;8.20;;
19262;SDS011;9765;52.354;20.884;2023-04-29T04:47:51;15.67;;;7.63;;
19262;SDS011;9765;52.354;20.884;2023-04-29T04:50:18;12.33;;;7.70;;
19262;SDS011;9765;52.354;20.884;2023-04-29T04:52:45;19.17;;;7.30;;
19262;SDS011;9765;52.354;20.884;2023-04-29T04:55:14;18.47;;;7.23;;
19262;SDS011;9765;52.354;20.884;2023-04-29T04:57:40;15.73;;;7.33;;
19262;SDS011;9765;52.354;20.884;2023-04-29T05:00:08;15.53;;;6.63;;
19262;SDS011;9765;52.354;20.884;2023-04-29T05:02:35;18.40;;;6.90;;
19262;SDS011;9765;52.354;20.884;2023-04-29T05:05:02;15.43;;;6.60;;
19262;SDS011;9765;52.354;20.884;2023-04-29T05:07:29;17.87;;;6.83;;
19262;SDS011;9765;52.354;20.884;2023-04-29T05:09:57;14.77;;;6.37;;
19262;SDS011;9765;52.354;20.884;2023-04-29T05:12:25;14.27;;;6.60;;
19262;SDS011;9765;52.354;20.884;2023-04-29T05:14:54;14.13;;;6.77;;
19262;SDS011;9765;52.354;20.884;2023-04-29T05:17:21;14.27;;;6.10;;
19262;SDS011;9765;52.354;20.884;2023-04-29T05:19:48;16.67;;;6.50;;
19262;SDS011;9765;52.354;20.884;2023-04-29T05:22:15;18.17;;;6.83;;
19262;SDS011;9765;52.354;20.884;2023-04-29T05:24:42;12.13;;;6.37;;
19262;SDS011;9765;52.354;20.884;2023-04-29T05:27:08;17.83;;;6.53;;
19262;SDS011;9765;52.354;20.884;2023-04-29T05:29:36;14.00;;;6.47;;
19262;SDS011;9765;52.354;20.884;2023-04-29T05:32:03;20.27;;;6.17;;
19262;SDS011;9765;52.354;20.884;2023-04-29T05:34:30;10.53;;;6.07;;
19262;SDS011;9765;52.354;20.884;2023-04-29T05:36:57;15.63;;;6.37;;
19262;SDS011;9765;52.354;20.884;2023-04-29T05:39:26;14.73;;;6.20;;
19262;SDS011;9765;52.354;20.884;2023-04-29T05:41:53;13.93;;;6.57;;
19262;SDS011;9765;52.354;20.884;2023-04-29T05:44:20;18.03;;;6.50;;
19262;SDS011;9765;52.354;20.884;2023-04-29T05:46:48;14.07;;;6.47;;
19262;SDS011;9765;52.354;20.884;2023-04-29T05:49:15;12.80;;;6.40;;
19262;SDS011;9765;52.354;20.884;2023-04-29T05:51:45;16.20;;;6.30;;
19262;SDS011;9765;52.354;20.884;2023-04-29T05:54:12;16.97;;;6.60;;
19262;SDS011;9765;52.354;20.884;2023-04-29T05:56:38;21.20;;;6.57;;
19262;SDS011;9765;52.354;20.884;2023-04-29T05:59:05;16.30;;;6.10;;
19262;SDS011;9765;52.354;20.884;2023-04-29T06:01:32;13.87;;;6.10;;
19262;SDS011;9765;52.354;20.884;2023-04-29T06:04:00;12.73;;;5.83;;
19262;SDS011;9765;52.354;20.884;2023-04-29T06:06:27;18.67;;;7.03;;
19262;SDS011;9765;52.354;20.884;2023-04-29T06:08:54;14.73;;;6.80;;
19262;SDS011;9765;52.354;20.884;2023-04-29T06:11:21;13.93;;;6.33;;
19262;SDS011;9765;52.354;20.884;2023-04-29T06:13:48;10.80;;;5.57;;
19262;SDS011;9765;52.354;20.884;2023-04-29T06:16:15;19.97;;;6.97;;
19262;SDS011;9765;52.354;20.884;2023-04-29T06:18:41;16.07;;;6.37;;
19262;SDS011;9765;52.354;20.884;2023-04-29T06:21:09;11.60;;;5.57;;
19262;SDS011;9765;52.354;20.884;2023-04-29T06:23:36;11.90;;;5.83;;
19262;SDS011;9765;52.354;20.884;2023-04-29T06:26:03;13.90;;;6.07;;
19262;SDS011;9765;52.354;20.884;2023-04-29T06:28:30;12.13;;;5.13;;
19262;SDS011;9765;52.354;20.884;2023-04-29T06:30:57;11.30;;;5.20;;
19262;SDS011;9765;52.354;20.884;2023-04-29T06:33:23;10.53;;;4.93;;
19262;SDS011;9765;52.354;20.884;2023-04-29T06:35:50;15.17;;;5.50;;
19262;SDS011;9765;52.354;20.884;2023-04-29T06:38:19;11.93;;;5.33;;
19262;SDS011;9765;52.354;20.884;2023-04-29T06:40:45;13.43;;;6.23;;
19262;SDS011;9765;52.354;20.884;2023-04-29T06:43:12;15.43;;;5.23;;
19262;SDS011;9765;52.354;20.884;2023-04-29T06:45:39;10.10;;;5.10;;
19262;SDS011;9765;52.354;20.884;2023-04-29T06:48:05;15.40;;;5.33;;
19262;SDS011;9765;52.354;20.884;2023-04-29T06:50:32;15.00;;;5.40;;
19262;SDS011;9765;52.354;20.884;2023-04-29T06:53:00;13.30;;;5.57;;
19262;SDS011;9765;52.354;20.884;2023-04-29T06:55:28;13.00;;;5.17;;
19262;SDS011;9765;52.354;20.884;2023-04-29T06:57:55;12.60;;;4.80;;
19262;SDS011;9765;52.354;20.884;2023-04-29T07:00:22;14.70;;;5.00;;
19262;SDS011;9765;52.354;20.884;2023-04-29T07:02:48;14.33;;;5.83;;
19262;SDS011;9765;52.354;20.884;2023-04-29T07:05:15;10.47;;;5.23;;
19262;SDS011;9765;52.354;20.884;2023-04-29T07:07:43;12.57;;;5.30;;
19262;SDS011;9765;52.354;20.884;2023-04-29T07:10:10;12.27;;;5.43;;
19262;SDS011;9765;52.354;20.884;2023-04-29T07:12:38;14.10;;;5.33;;
19262;SDS011;9765;52.354;20.884;2023-04-29T07:15:05;10.77;;;5.10;;
19262;SDS011;9765;52.354;20.884;2023-04-29T07:17:32;11.27;;;4.77;;
19262;SDS011;9765;52.354;20.884;2023-04-29T07:19:59;31.80;;;5.93;;
19262;SDS011;9765;52.354;20.884;2023-04-29T07:22:26;16.00;;;5.37;;
19262;SDS011;9765;52.354;20.884;2023-04-29T07:24:56;14.70;;;5.27;;
19262;SDS011;9765;52.354;20.884;2023-04-29T07:27:22;12.20;;;5.00;;
19262;SDS011;9765;52.354;20.884;2023-04-29T07:29:50;12.57;;;4.83;;
19262;SDS011;9765;52.354;20.884;2023-04-29T07:32:20;10.37;;;4.50;;
19262;SDS011;9765;52.354;20.884;2023-04-29T07:34:47;16.67;;;4.93;;
19262;SDS011;9765;52.354;20.884;2023-04-29T07:37:14;10.80;;;4.47;;
19262;SDS011;9765;52.354;20.884;2023-04-29T07:39:41;9.33;;;4.50;;
19262;SDS011;9765;52.354;20.884;2023-04-29T07:42:07;16.30;;;5.07;;
19262;SDS011;9765;52.354;20.884;2023-04-29T07:44:34;10.63;;;4.20;;
19262;SDS011;9765;52.354;20.884;2023-04-29T07:47:05;14.93;;;4.60;;
19262;SDS011;9765;52.354;20.884;2023-04-29T07:49:32;13.63;;;4.20;;
19262;SDS011;9765;52.354;20.884;2023-04-29T07:51:59;11.63;;;3.80;;
19262;SDS011;9765;52.354;20.884;2023-04-29T07:54:28;12.87;;;3.93;;
19262;SDS011;9765;52.354;20.884;2023-04-29T07:56:58;8.27;;;3.40;;
19262;SDS011;9765;52.354;20.884;2023-04-29T07:59:25;11.77;;;3.67;;
19262;SDS011;9765;52.354;20.884;2023-04-29T08:01:52;48.13;;;6.70;;
19262;SDS011;9765;52.354;20.884;2023-04-29T08:04:21;5.40;;;3.20;;
19262;SDS011;9765;52.354;20.884;2023-04-29T08:06:47;9.03;;;3.70;;
19262;SDS011;9765;52.354;20.884;2023-04-29T08:09:17;15.67;;;3.83;;
19262;SDS011;9765;52.354;20.884;2023-04-29T08:11:44;11.17;;;3.70;;
19262;SDS011;9765;52.354;20.884;2023-04-29T08:14:11;9.17;;;3.40;;
19262;SDS011;9765;52.354;20.884;2023-04-29T08:16:38;13.03;;;3.37;;
19262;SDS011;9765;52.354;20.884;2023-04-29T08:19:04;17.70;;;4.37;;
19262;SDS011;9765;52.354;20.884;2023-04-29T08:21:34;20.87;;;6.40;;
19262;SDS011;9765;52.354;20.884;2023-04-29T08:24:01;12.13;;;3.80;;
19262;SDS011;9765;52.354;20.884;2023-04-29T08:26:31;12.07;;;3.83;;
19262;SDS011;9765;52.354;20.884;2023-04-29T08:28:58;7.27;;;3.80;;
19262;SDS011;9765;52.354;20.884;2023-04-29T08:31:27;9.63;;;3.53;;
19262;SDS011;9765;52.354;20.884;2023-04-29T08:33:53;15.63;;;4.07;;
19262;SDS011;9765;52.354;20.884;2023-04-29T08:36:22;11.27;;;3.47;;
19262;SDS011;9765;52.354;20.884;2023-04-29T08:38:50;13.57;;;3.17;;
19262;SDS011;9765;52.354;20.884;2023-04-29T08:41:17;15.40;;;3.23;;
19262;SDS011;9765;52.354;20.884;2023-04-29T08:43:44;18.23;;;3.40;;
19262;SDS011;9765;52.354;20.884;2023-04-29T08:46:11;12.40;;;3.57;;
19262;SDS011;9765;52.354;20.884;2023-04-29T08:48:38;13.80;;;3.37;;
19262;SDS011;9765;52.354;20.884;2023-04-29T08:51:06;11.17;;;3.43;;
19262;SDS011;9765;52.354;20.884;2023-04-29T08:53:33;5.90;;;3.17;;
19262;SDS011;9765;52.354;20.884;2023-04-29T08:56:03;9.47;;;3.27;;
19262;SDS011;9765;52.354;20.884;2023-04-29T08:58:39;8.20;;;2.87;;
19262;SDS011;9765;52.354;20.884;2023-04-29T09:01:09;8.83;;;3.00;;
19262;SDS011;9765;52.354;20.884;2023-04-29T09:03:39;10.03;;;3.37;;
19262;SDS011;9765;52.354;20.884;2023-04-29T09:06:10;17.83;;;3.37;;
19262;SDS011;9765;52.354;20.884;2023-04-29T09:08:38;10.40;;;2.70;;
19262;SDS011;9765;52.354;20.884;2023-04-29T09:11:08;10.30;;;3.20;;
19262;SDS011;9765;52.354;20.884;2023-04-29T09:13:36;11.83;;;3.30;;
19262;SDS011;9765;52.354;20.884;2023-04-29T09:16:03;9.83;;;3.37;;
19262;SDS011;9765;52.354;20.884;2023-04-29T09:18:43;9.03;;;3.57;;
19262;SDS011;9765;52.354;20.884;2023-04-29T09:21:12;8.03;;;3.10;;
19262;SDS011;9765;52.354;20.884;2023-04-29T09:23:39;6.40;;;3.00;;
19262;SDS011;9765;52.354;20.884;2023-04-29T09:26:06;10.43;;;3.20;;
19262;SDS011;9765;52.354;20.884;2023-04-29T09:28:35;8.90;;;3.40;;
19262;SDS011;9765;52.354;20.884;2023-04-29T09:31:03;10.17;;;3.97;;
19262;SDS011;9765;52.354;20.884;2023-04-29T09:33:45;10.03;;;3.50;;
19262;SDS011;9765;52.354;20.884;2023-04-29T09:36:18;12.40;;;3.43;;
19262;SDS011;9765;52.354;20.884;2023-04-29T09:39:01;10.23;;;3.20;;
19262;SDS011;9765;52.354;20.884;2023-04-29T09:41:30;15.50;;;3.67;;
19262;SDS011;9765;52.354;20.884;2023-04-29T09:44:01;8.83;;;3.30;;
19262;SDS011;9765;52.354;20.884;2023-04-29T09:46:29;8.17;;;3.37;;
19262;SDS011;9765;52.354;20.884;2023-04-29T09:48:57;13.10;;;3.63;;
19262;SDS011;9765;52.354;20.884;2023-04-29T09:51:26;11.43;;;3.70;;
19262;SDS011;9765;52.354;20.884;2023-04-29T09:53:56;9.70;;;3.57;;
19262;SDS011;9765;52.354;20.884;2023-04-29T09:56:23;9.77;;;3.33;;
19262;SDS011;9765;52.354;20.884;2023-04-29T09:58:54;14.87;;;3.70;;
19262;SDS011;9765;52.354;20.884;2023-04-29T10:01:21;11.00;;;4.00;;
19262;SDS011;9765;52.354;20.884;2023-04-29T10:03:50;9.00;;;3.33;;
19262;SDS011;9765;52.354;20.884;2023-04-29T10:06:19;13.80;;;3.70;;
19262;SDS011;9765;52.354;20.884;2023-04-29T10:08:46;6.97;;;3.30;;
19262;SDS011;9765;52.354;20.884;2023-04-29T10:11:15;10.90;;;3.60;;
19262;SDS011;9765;52.354;20.884;2023-04-29T10:13:43;12.80;;;3.10;;
19262;SDS011;9765;52.354;20.884;2023-04-29T10:16:14;9.27;;;3.90;;
19262;SDS011;9765;52.354;20.884;2023-04-29T10:18:52;10.40;;;3.80;;
19262;SDS011;9765;52.354;20.884;2023-04-29T10:21:20;8.47;;;3.30;;
19262;SDS011;9765;52.354;20.884;2023-04-29T10:23:55;8.47;;;3.40;;
19262;SDS011;9765;52.354;20.884;2023-04-29T10:26:23;16.43;;;3.80;;
19262;SDS011;9765;52.354;20.884;2023-04-29T10:28:53;8.00;;;3.30;;
19262;SDS011;9765;52.354;20.884;2023-04-29T10:31:22;12.53;;;3.50;;
19262;SDS011;9765;52.354;20.884;2023-04-29T10:33:52;8.60;;;3.27;;
19262;SDS011;9765;52.354;20.884;2023-04-29T10:36:21;13.87;;;3.40;;
19262;SDS011;9765;52.354;20.884;2023-04-29T10:38:49;8.17;;;3.27;;
19262;SDS011;9765;52.354;20.884;2023-04-29T10:41:20;13.97;;;3.73;;
19262;SDS011;9765;52.354;20.884;2023-04-29T10:43:49;8.00;;;2.80;;
19262;SDS011;9765;52.354;20.884;2023-04-29T10:46:17;7.10;;;3.30;;
19262;SDS011;9765;52.354;20.884;2023-04-29T10:48:47;9.47;;;3.40;;
19262;SDS011;9765;52.354;20.884;2023-04-29T10:51:29;11.37;;;3.40;;
19262;SDS011;9765;52.354;20.884;2023-04-29T10:53:57;8.63;;;3.60;;
19262;SDS011;9765;52.354;20.884;2023-04-29T10:56:39;18.37;;;3.43;;
19262;SDS011;9765;52.354;20.884;2023-04-29T10:59:13;8.50;;;3.33;;
19262;SDS011;9765;52.354;20.884;2023-04-29T11:01:45;10.23;;;3.20;;
19262;SDS011;9765;52.354;20.884;2023-04-29T11:04:14;8.67;;;3.67;;
19262;SDS011;9765;52.354;20.884;2023-04-29T11:06:50;12.10;;;3.70;;
19262;SDS011;9765;52.354;20.884;2023-04-29T11:09:19;9.43;;;3.57;;
19262;SDS011;9765;52.354;20.884;2023-04-29T11:11:57;8.70;;;3.43;;
19262;SDS011;9765;52.354;20.884;2023-04-29T11:14:30;8.73;;;3.80;;
19262;SDS011;9765;52.354;20.884;2023-04-29T11:16:58;8.00;;;2.87;;
19262;SDS011;9765;52.354;20.884;2023-04-29T11:19:31;9.80;;;3.73;;
19262;SDS011;9765;52.354;20.884;2023-04-29T11:24:57;14.03;;;3.23;;
19262;SDS011;9765;52.354;20.884;2023-04-29T11:27:25;8.17;;;3.40;;
19262;SDS011;9765;52.354;20.884;2023-04-29T11:29:55;8.77;;;2.93;;
19262;SDS011;9765;52.354;20.884;2023-04-29T11:32:23;10.10;;;3.37;;
19262;SDS011;9765;52.354;20.884;2023-04-29T11:34:52;8.50;;;2.97;;
19262;SDS011;9765;52.354;20.884;2023-04-29T11:37:19;9.93;;;3.03;;
19262;SDS011;9765;52.354;20.884;2023-04-29T11:39:47;17.43;;;3.30;;
19262;SDS011;9765;52.354;20.884;2023-04-29T11:42:18;10.80;;;3.43;;
19262;SDS011;9765;52.354;20.884;2023-04-29T11:44:46;12.50;;;3.23;;
19262;SDS011;9765;52.354;20.884;2023-04-29T11:47:16;8.77;;;2.97;;
19262;SDS011;9765;52.354;20.884;2023-04-29T11:49:42;7.07;;;3.03;;
19262;SDS011;9765;52.354;20.884;2023-04-29T11:52:11;9.13;;;2.87;;
19262;SDS011;9765;52.354;20.884;2023-04-29T11:54:39;8.37;;;3.40;;
19262;SDS011;9765;52.354;20.884;2023-04-29T11:57:09;9.00;;;3.00;;
19262;SDS011;9765;52.354;20.884;2023-04-29T11:59:36;9.20;;;3.40;;
19262;SDS011;9765;52.354;20.884;2023-04-29T12:02:02;8.77;;;3.67;;
19262;SDS011;9765;52.354;20.884;2023-04-29T12:04:29;10.70;;;3.40;;
19262;SDS011;9765;52.354;20.884;2023-04-29T12:06:56;7.80;;;3.40;;
19262;SDS011;9765;52.354;20.884;2023-04-29T12:09:25;6.73;;;2.97;;
19262;SDS011;9765;52.354;20.884;2023-04-29T12:11:51;10.80;;;3.90;;
19262;SDS011;9765;52.354;20.884;2023-04-29T12:14:18;8.47;;;3.33;;
19262;SDS011;9765;52.354;20.884;2023-04-29T12:16:45;9.13;;;3.30;;
19262;SDS011;9765;52.354;20.884;2023-04-29T12:19:13;10.40;;;3.93;;
19262;SDS011;9765;52.354;20.884;2023-04-29T12:21:47;8.67;;;3.03;;
19262;SDS011;9765;52.354;20.884;2023-04-29T12:24:14;7.10;;;3.20;;
19262;SDS011;9765;52.354;20.884;2023-04-29T12:26:43;9.87;;;3.70;;
19262;SDS011;9765;52.354;20.884;2023-04-29T12:29:10;9.80;;;3.40;;
19262;SDS011;9765;52.354;20.884;2023-04-29T12:31:38;12.17;;;3.70;;
19262;SDS011;9765;52.354;20.884;2023-04-29T12:34:07;11.23;;;3.37;;
19262;SDS011;9765;52.354;20.884;2023-04-29T12:36:34;11.00;;;3.43;;
19262;SDS011;9765;52.354;20.884;2023-04-29T12:39:04;10.60;;;3.20;;
19262;SDS011;9765;52.354;20.884;2023-04-29T12:41:37;7.87;;;3.30;;
19262;SDS011;9765;52.354;20.884;2023-04-29T12:44:06;10.77;;;3.30;;
19262;SDS011;9765;52.354;20.884;2023-04-29T12:46:34;9.50;;;3.60;;
19262;SDS011;9765;52.354;20.884;2023-04-29T12:49:02;13.20;;;3.63;;
19262;SDS011;9765;52.354;20.884;2023-04-29T12:51:30;8.73;;;3.40;;
19262;SDS011;9765;52.354;20.884;2023-04-29T12:53:57;16.23;;;6.17;;
19262;SDS011;9765;52.354;20.884;2023-04-29T12:56:25;10.40;;;3.40;;
19262;SDS011;9765;52.354;20.884;2023-04-29T12:58:52;10.10;;;3.23;;
19262;SDS011;9765;52.354;20.884;2023-04-29T13:01:20;8.37;;;3.57;;
19262;SDS011;9765;52.354;20.884;2023-04-29T13:03:47;7.43;;;3.33;;
19262;SDS011;9765;52.354;20.884;2023-04-29T13:06:15;9.07;;;3.37;;
19262;SDS011;9765;52.354;20.884;2023-04-29T13:08:42;9.17;;;3.50;;
19262;SDS011;9765;52.354;20.884;2023-04-29T13:11:09;6.47;;;3.50;;
19262;SDS011;9765;52.354;20.884;2023-04-29T13:13:37;9.07;;;3.70;;
19262;SDS011;9765;52.354;20.884;2023-04-29T13:16:04;10.00;;;4.53;;
19262;SDS011;9765;52.354;20.884;2023-04-29T13:18:33;6.77;;;4.17;;
19262;SDS011;9765;52.354;20.884;2023-04-29T13:21:00;7.47;;;3.80;;
19262;SDS011;9765;52.354;20.884;2023-04-29T13:23:26;6.90;;;3.40;;
19262;SDS011;9765;52.354;20.884;2023-04-29T13:25:53;8.27;;;4.00;;
19262;SDS011;9765;52.354;20.884;2023-04-29T13:28:20;9.87;;;3.50;;
19262;SDS011;9765;52.354;20.884;2023-04-29T13:30:47;8.17;;;3.33;;
19262;SDS011;9765;52.354;20.884;2023-04-29T13:33:14;7.30;;;3.20;;
19262;SDS011;9765;52.354;20.884;2023-04-29T13:35:43;10.63;;;3.10;;
19262;SDS011;9765;52.354;20.884;2023-04-29T13:38:09;6.33;;;3.30;;
19262;SDS011;9765;52.354;20.884;2023-04-29T13:40:36;9.37;;;3.27;;
19262;SDS011;9765;52.354;20.884;2023-04-29T13:43:03;6.87;;;3.47;;
19262;SDS011;9765;52.354;20.884;2023-04-29T13:45:30;6.80;;;3.47;;
19262;SDS011;9765;52.354;20.884;2023-04-29T13:47:58;7.37;;;3.50;;
19262;SDS011;9765;52.354;20.884;2023-04-29T13:50:24;10.87;;;3.77;;
19262;SDS011;9765;52.354;20.884;2023-04-29T13:52:52;12.00;;;3.63;;
19262;SDS011;9765;52.354;20.884;2023-04-29T13:55:19;11.27;;;3.80;;
19262;SDS011;9765;52.354;20.884;2023-04-29T13:57:46;10.77;;;3.70;;
19262;SDS011;9765;52.354;20.884;2023-04-29T14:00:13;10.80;;;3.53;;
19262;SDS011;9765;52.354;20.884;2023-04-29T14:02:41;10.80;;;3.60;;
19262;SDS011;9765;52.354;20.884;2023-04-29T14:05:08;12.43;;;3.33;;
19262;SDS011;9765;52.354;20.884;2023-04-29T14:07:35;11.03;;;3.50;;
19262;SDS011;9765;52.354;20.884;2023-04-29T14:10:03;7.93;;;3.43;;
19262;SDS011;9765;52.354;20.884;2023-04-29T14:12:30;9.47;;;3.17;;
19262;SDS011;9765;52.354;20.884;2023-04-29T14:14:57;9.63;;;3.60;;
19262;SDS011;9765;52.354;20.884;2023-04-29T14:17:24;12.40;;;3.80;;
19262;SDS011;9765;52.354;20.884;2023-04-29T14:19:53;9.50;;;3.57;;
19262;SDS011;9765;52.354;20.884;2023-04-29T14:22:20;11.53;;;4.00;;
19262;SDS011;9765;52.354;20.884;2023-04-29T14:24:46;9.07;;;3.37;;
19262;SDS011;9765;52.354;20.884;2023-04-29T14:27:15;9.10;;;3.30;;
19262;SDS011;9765;52.354;20.884;2023-04-29T14:29:41;10.53;;;3.80;;
19262;SDS011;9765;52.354;20.884;2023-04-29T14:32:08;15.53;;;4.07;;
19262;SDS011;9765;52.354;20.884;2023-04-29T14:34:35;9.70;;;3.73;;
19262;SDS011;9765;52.354;20.884;2023-04-29T14:37:02;9.40;;;3.77;;
19262;SDS011;9765;52.354;20.884;2023-04-29T14:39:28;8.63;;;3.20;;
19262;SDS011;9765;52.354;20.884;2023-04-29T14:41:58;8.50;;;3.07;;
19262;SDS011;9765;52.354;20.884;2023-04-29T14:44:28;9.47;;;3.63;;
19262;SDS011;9765;52.354;20.884;2023-04-29T14:46:55;10.60;;;4.07;;
19262;SDS011;9765;52.354;20.884;2023-04-29T14:49:24;8.03;;;3.33;;
19262;SDS011;9765;52.354;20.884;2023-04-29T14:51:51;12.20;;;4.93;;
19262;SDS011;9765;52.354;20.884;2023-04-29T14:54:17;10.33;;;4.07;;
19262;SDS011;9765;52.354;20.884;2023-04-29T14:56:44;14.43;;;5.60;;
19262;SDS011;9765;52.354;20.884;2023-04-29T14:59:11;17.33;;;6.70;;
19262;SDS011;9765;52.354;20.884;2023-04-29T15:01:39;17.27;;;6.07;;
19262;SDS011;9765;52.354;20.884;2023-04-29T15:04:06;11.73;;;4.77;;
19262;SDS011;9765;52.354;20.884;2023-04-29T15:06:32;10.77;;;4.50;;
19262;SDS011;9765;52.354;20.884;2023-04-29T15:08:59;9.87;;;3.70;;
19262;SDS011;9765;52.354;20.884;2023-04-29T15:11:26;7.27;;;3.80;;
19262;SDS011;9765;52.354;20.884;2023-04-29T15:13:53;11.07;;;3.70;;
19262;SDS011;9765;52.354;20.884;2023-04-29T15:16:20;11.13;;;4.20;;
19262;SDS011;9765;52.354;20.884;2023-04-29T15:18:48;8.77;;;3.97;;
19262;SDS011;9765;52.354;20.884;2023-04-29T15:21:15;9.23;;;3.90;;
19262;SDS011;9765;52.354;20.884;2023-04-29T15:23:42;8.40;;;3.67;;
19262;SDS011;9765;52.354;20.884;2023-04-29T15:26:09;15.30;;;3.90;;
19262;SDS011;9765;52.354;20.884;2023-04-29T15:28:35;11.03;;;3.80;;
19262;SDS011;9765;52.354;20.884;2023-04-29T15:31:02;10.43;;;3.70;;
19262;SDS011;9765;52.354;20.884;2023-04-29T15:33:29;10.83;;;3.70;;
19262;SDS011;9765;52.354;20.884;2023-04-29T15:35:58;10.37;;;3.63;;
19262;SDS011;9765;52.354;20.884;2023-04-29T15:38:25;10.07;;;3.43;;
19262;SDS011;9765;52.354;20.884;2023-04-29T15:40:53;15.90;;;4.33;;
19262;SDS011;9765;52.354;20.884;2023-04-29T15:43:24;7.33;;;3.67;;
19262;SDS011;9765;52.354;20.884;2023-04-29T15:45:51;12.47;;;3.90;;
19262;SDS011;9765;52.354;20.884;2023-04-29T15:48:18;7.57;;;4.07;;
19262;SDS011;9765;52.354;20.884;2023-04-29T15:50:45;8.97;;;3.80;;
19262;SDS011;9765;52.354;20.884;2023-04-29T15:53:13;10.47;;;3.80;;
19262;SDS011;9765;52.354;20.884;2023-04-29T15:55:40;15.27;;;4.00;;
19262;SDS011;9765;52.354;20.884;2023-04-29T15:58:07;6.83;;;3.80;;
19262;SDS011;9765;52.354;20.884;2023-04-29T16:00:34;14.57;;;5.03;;
19262;SDS011;9765;52.354;20.884;2023-04-29T16:03:00;13.00;;;4.30;;
19262;SDS011;9765;52.354;20.884;2023-04-29T16:05:27;9.73;;;4.27;;
19262;SDS011;9765;52.354;20.884;2023-04-29T16:07:55;11.07;;;4.40;;
19262;SDS011;9765;52.354;20.884;2023-04-29T16:10:23;10.87;;;3.93;;
19262;SDS011;9765;52.354;20.884;2023-04-29T16:12:50;9.30;;;4.50;;
19262;SDS011;9765;52.354;20.884;2023-04-29T16:15:17;11.20;;;4.53;;
19262;SDS011;9765;52.354;20.884;2023-04-29T16:17:44;8.07;;;4.27;;
19262;SDS011;9765;52.354;20.884;2023-04-29T16:20:11;15.20;;;4.60;;
19262;SDS011;9765;52.354;20.884;2023-04-29T16:22:38;10.80;;;4.13;;
19262;SDS011;9765;52.354;20.884;2023-04-29T16:25:05;10.77;;;4.30;;
19262;SDS011;9765;52.354;20.884;2023-04-29T16:27:36;12.90;;;4.13;;
19262;SDS011;9765;52.354;20.884;2023-04-29T16:30:03;8.67;;;4.27;;
19262;SDS011;9765;52.354;20.884;2023-04-29T16:32:31;11.57;;;4.67;;
19262;SDS011;9765;52.354;20.884;2023-04-29T16:34:58;10.80;;;3.83;;
19262;SDS011;9765;52.354;20.884;2023-04-29T16:37:25;14.70;;;4.30;;
19262;SDS011;9765;52.354;20.884;2023-04-29T16:39:52;9.83;;;4.30;;
19262;SDS011;9765;52.354;20.884;2023-04-29T16:42:19;7.47;;;3.93;;
19262;SDS011;9765;52.354;20.884;2023-04-29T16:44:47;14.07;;;4.70;;
19262;SDS011;9765;52.354;20.884;2023-04-29T16:47:14;9.50;;;4.23;;
19262;SDS011;9765;52.354;20.884;2023-04-29T16:49:43;9.77;;;4.50;;
19262;SDS011;9765;52.354;20.884;2023-04-29T16:52:09;10.13;;;4.57;;
19262;SDS011;9765;52.354;20.884;2023-04-29T16:54:37;11.10;;;5.20;;
19262;SDS011;9765;52.354;20.884;2023-04-29T16:57:03;13.93;;;5.63;;
19262;SDS011;9765;52.354;20.884;2023-04-29T16:59:30;14.67;;;7.40;;
19262;SDS011;9765;52.354;20.884;2023-04-29T17:01:58;13.70;;;5.63;;
19262;SDS011;9765;52.354;20.884;2023-04-29T17:04:26;10.67;;;5.40;;
19262;SDS011;9765;52.354;20.884;2023-04-29T17:06:53;11.03;;;4.60;;
19262;SDS011;9765;52.354;20.884;2023-04-29T17:09:20;14.27;;;5.03;;
19262;SDS011;9765;52.354;20.884;2023-04-29T17:11:49;12.17;;;5.17;;
19262;SDS011;9765;52.354;20.884;2023-04-29T17:14:16;10.00;;;4.70;;
19262;SDS011;9765;52.354;20.884;2023-04-29T17:16:43;9.07;;;5.27;;
19262;SDS011;9765;52.354;20.884;2023-04-29T17:19:11;12.23;;;6.27;;
19262;SDS011;9765;52.354;20.884;2023-04-29T17:21:38;18.00;;;8.57;;
19262;SDS011;9765;52.354;20.884;2023-04-29T17:24:05;22.90;;;8.13;;
